Time;durP1;ratioP1;P1;durP2;ratioP2;P2;SDS_P1;SDS_P2;PMS_P1;PMS_P2;Temp;Humidity;BMP_temperature;BMP_pressure;BME280_temperature;BME280_humidity;BME280_pressure;Samples;Min_cycle;Max_cycle;Signal;HPM_P1;HPM_P2
2021/09/08 00:01:32;;;;;;;9.95;7.00;;;;;;;14.85;67.44;100983.72;8600843;34;20446;-71
2021/09/08 00:06:35;;;;;;;11.38;7.13;;;;;;;14.74;68.02;100966.59;8600253;34;20471;-71
2021/09/08 00:11:38;;;;;;;10.48;7.22;;;;;;;14.74;67.90;100968.47;8600992;34;20990;-71
2021/09/08 00:16:43;;;;;;;10.73;7.38;;;;;;;14.76;67.91;100969.19;8599977;34;20461;-71
2021/09/08 00:21:47;;;;;;;10.43;7.63;;;;;;;14.52;68.58;100962.25;8600526;34;20413;-72
2021/09/08 00:26:50;;;;;;;10.43;6.88;;;;;;;14.48;68.31;100962.66;8599418;34;20776;-72
2021/09/08 00:31:55;;;;;;;9.73;6.60;;;;;;;14.30;68.75;100976.78;8579059;34;20185;-72
2021/09/08 00:36:58;;;;;;;13.77;7.18;;;;;;;14.26;69.25;100975.34;8600960;34;20458;-72
2021/09/08 00:42:10;;;;;;;11.40;6.85;;;;;;;14.28;69.76;100962.53;8599970;34;21360;-72
2021/09/08 00:47:16;;;;;;;13.05;8.50;;;;;;;14.56;69.16;100952.00;8598783;34;20185;-72
2021/09/08 00:52:20;;;;;;;12.00;7.43;;;;;;;14.53;68.09;100947.72;8575582;34;20137;-72
2021/09/08 00:57:25;;;;;;;12.48;7.63;;;;;;;14.40;68.52;100948.97;8598919;34;21490;-72
2021/09/08 01:02:30;;;;;;;10.43;7.20;;;;;;;14.30;68.74;100947.06;8575649;34;20189;-72
2021/09/08 01:07:36;;;;;;;12.73;7.88;;;;;;;14.27;68.81;100951.88;8574987;34;20460;-71
2021/09/08 01:12:40;;;;;;;13.63;7.13;;;;;;;14.17;68.86;100951.81;8599335;34;20189;-72
2021/09/08 01:17:46;;;;;;;9.75;7.28;;;;;;;14.09;69.16;100944.38;8600150;34;20189;-72
2021/09/08 01:22:52;;;;;;;12.00;7.50;;;;;;;14.06;69.42;100932.97;8605477;34;20193;-71
2021/09/08 01:27:56;;;;;;;10.85;7.25;;;;;;;13.97;69.09;100940.06;8661472;33;21645;-72
2021/09/08 01:33:01;;;;;;;11.80;7.28;;;;;;;14.03;69.09;100947.63;8661169;33;20192;-71
2021/09/08 01:38:06;;;;;;;12.75;8.18;;;;;;;14.04;68.74;100940.34;8660058;33;21701;-71
2021/09/08 01:43:09;;;;;;;11.30;7.88;;;;;;;14.05;68.62;100939.38;8636119;33;20344;-71
2021/09/08 01:48:12;;;;;;;11.02;6.95;;;;;;;13.99;68.80;100931.78;8660181;33;21072;-71
2021/09/08 01:53:16;;;;;;;11.45;7.25;;;;;;;13.92;69.17;100926.09;8660507;33;21252;-71
2021/09/08 01:58:19;;;;;;;11.45;7.10;;;;;;;13.74;69.38;100925.84;8659313;33;20207;-71
2021/09/08 02:03:22;;;;;;;12.65;7.93;;;;;;;13.57;70.32;100929.09;8635863;33;20792;-71
2021/09/08 02:08:27;;;;;;;12.45;7.30;;;;;;;13.56;70.13;100922.00;8660121;33;20176;-71
2021/09/08 02:13:30;;;;;;;10.82;6.88;;;;;;;13.60;70.10;100915.34;8660967;33;20248;-71
2021/09/08 02:18:33;;;;;;;10.77;7.32;;;;;;;13.61;70.04;100919.78;8658954;33;20321;-71
2021/09/08 02:23:38;;;;;;;13.13;8.50;;;;;;;13.66;69.48;100917.53;8659419;33;20153;-71
2021/09/08 02:28:41;;;;;;;12.70;8.02;;;;;;;13.70;69.56;100916.28;8658687;33;20263;-71
2021/09/08 02:33:44;;;;;;;11.50;7.00;;;;;;;13.69;69.42;100903.78;8659062;33;20648;-71
2021/09/08 02:38:48;;;;;;;12.32;7.63;;;;;;;13.64;69.26;100904.16;8658204;33;20211;-71
2021/09/08 02:43:51;;;;;;;13.05;7.72;;;;;;;13.65;69.27;100902.31;8659310;33;20144;-71
2021/09/08 02:48:54;;;;;;;13.18;7.60;;;;;;;13.71;69.11;100897.25;8634064;33;20181;-71
2021/09/08 02:53:59;;;;;;;13.05;7.82;;;;;;;13.73;69.16;100897.13;8658178;33;20245;-71
2021/09/08 02:59:02;;;;;;;13.30;7.97;;;;;;;13.79;68.90;100890.31;8658221;33;20219;-71
2021/09/08 03:04:05;;;;;;;13.18;6.97;;;;;;;13.69;68.91;100884.88;8658228;33;20196;-71
2021/09/08 03:09:09;;;;;;;12.07;7.43;;;;;;;13.69;68.94;100884.88;8658423;33;21452;-71
2021/09/08 03:14:12;;;;;;;11.27;7.28;;;;;;;13.71;68.77;100886.47;8657609;33;20283;-71
2021/09/08 03:19:15;;;;;;;10.90;6.95;;;;;;;13.46;69.02;100890.38;8633525;33;20172;-71
2021/09/08 03:24:20;;;;;;;12.80;7.43;;;;;;;13.11;70.14;100890.66;8633453;33;20153;-71
2021/09/08 03:29:23;;;;;;;12.10;7.38;;;;;;;12.91;71.06;100897.69;8657952;33;20189;-71
2021/09/08 03:34:26;;;;;;;14.35;8.40;;;;;;;12.79;71.42;100886.09;8657675;33;20180;-71
2021/09/08 03:39:30;;;;;;;13.30;7.95;;;;;;;12.62;72.54;100893.88;8657489;33;20267;-71
2021/09/08 03:44:33;;;;;;;11.05;7.45;;;;;;;12.45;73.60;100888.03;8658209;33;20534;-71
2021/09/08 03:49:36;;;;;;;11.38;7.90;;;;;;;12.56;73.47;100887.13;8658294;33;21017;-71
2021/09/08 03:54:40;;;;;;;13.48;8.18;;;;;;;12.57;73.62;100891.53;8658529;33;20551;-71
2021/09/08 03:59:43;;;;;;;12.13;7.45;;;;;;;12.60;73.38;100881.38;8657804;33;20188;-71
2021/09/08 04:04:46;;;;;;;12.65;7.63;;;;;;;12.67;72.93;100868.25;8657695;33;20765;-71
2021/09/08 04:09:52;;;;;;;13.27;7.63;;;;;;;12.70;72.44;100870.69;8657642;33;20572;-71
2021/09/08 04:14:55;;;;;;;13.07;7.90;;;;;;;12.72;72.29;100875.94;8656505;33;20179;-71
2021/09/08 04:19:58;;;;;;;13.93;7.80;;;;;;;12.69;71.75;100873.50;8657268;33;20238;-71
2021/09/08 04:25:03;;;;;;;11.70;7.50;;;;;;;12.58;72.50;100875.22;8632820;33;20634;-71
2021/09/08 04:30:07;;;;;;;11.70;7.93;;;;;;;12.51;72.92;100879.44;8657242;33;21865;-71
2021/09/08 04:35:11;;;;;;;14.63;8.88;;;;;;;12.36;73.02;100870.72;8655888;33;20554;-71
2021/09/08 04:40:15;;;;;;;14.88;8.90;;;;;;;12.26;73.30;100867.06;8632754;33;20245;-72
2021/09/08 04:45:18;;;;;;;12.38;8.02;;;;;;;12.26;73.30;100861.69;8657532;33;20608;-72
2021/09/08 04:50:21;;;;;;;11.52;7.88;;;;;;;12.20;73.41;100858.59;8657122;33;20630;-72
2021/09/08 04:55:26;;;;;;;11.32;7.85;;;;;;;12.21;73.24;100858.50;8661825;33;20188;-71
2021/09/08 05:00:29;;;;;;;19.58;8.98;;;;;;;12.10;73.64;100862.03;8661817;33;20262;-71
2021/09/08 05:05:32;;;;;;;11.30;8.05;;;;;;;12.14;73.43;100866.19;8661607;33;20232;-71
2021/09/08 05:10:37;;;;;;;13.43;8.85;;;;;;;12.23;73.27;100869.13;8661938;33;20587;-72
2021/09/08 05:15:40;;;;;;;14.32;9.45;;;;;;;12.26;73.28;100864.38;8636696;33;20671;-71
2021/09/08 05:20:44;;;;;;;17.33;9.18;;;;;;;12.39;73.40;100854.31;8661939;33;20242;-71
2021/09/08 05:25:48;;;;;;;15.07;9.20;;;;;;;12.49;73.18;100853.59;8637726;33;20457;-71
2021/09/08 05:30:51;;;;;;;18.55;9.88;;;;;;;12.62;72.78;100853.44;8662007;33;20188;-71
2021/09/08 05:35:55;;;;;;;17.30;9.90;;;;;;;12.77;72.75;100846.78;8637148;33;20169;-72
2021/09/08 05:40:59;;;;;;;11.18;6.53;;;;;;;12.99;72.54;100845.84;8661794;33;20234;-71
2021/09/08 05:46:02;;;;;;;15.30;8.82;;;;;;;13.43;72.06;100844.78;8636145;33;20203;-71
2021/09/08 05:51:05;;;;;;;10.50;6.15;;;;;;;13.83;71.03;100841.34;8661714;33;20444;-72
2021/09/08 05:56:09;;;;;;;14.05;7.05;;;;;;;14.20;69.87;100846.16;8660399;33;20855;-72
2021/09/08 06:01:12;;;;;;;12.35;8.00;;;;;;;14.59;68.97;100847.19;8660991;33;20153;-71
2021/09/08 06:06:16;;;;;;;12.18;7.40;;;;;;;14.78;68.21;100843.66;8660105;33;20234;-72
2021/09/08 06:11:20;;;;;;;14.77;8.02;;;;;;;15.01;67.25;100848.78;8660664;33;20190;-71
2021/09/08 06:16:23;;;;;;;10.55;7.78;;;;;;;15.25;66.87;100845.66;8659955;33;20196;-71
2021/09/08 06:21:27;;;;;;;15.80;9.77;;;;;;;15.39;66.25;100844.41;8660673;33;20185;-71
2021/09/08 06:26:31;;;;;;;16.02;9.07;;;;;;;15.52;65.80;100847.63;8635117;33;20566;-72
2021/09/08 06:31:37;;;;;;;14.00;8.25;;;;;;;15.70;65.49;100845.03;8636095;33;20180;-71
2021/09/08 06:36:40;;;;;;;13.65;9.05;;;;;;;16.01;65.15;100831.22;8636416;33;20283;-72
2021/09/08 06:41:44;;;;;;;16.95;10.27;;;;;;;16.21;64.55;100842.81;8661186;33;20192;-71
2021/09/08 06:46:47;;;;;;;16.15;10.23;;;;;;;16.52;64.12;100838.00;8660273;33;20467;-72
2021/09/08 06:51:51;;;;;;;17.98;10.00;;;;;;;16.76;63.16;100837.44;8660666;33;21517;-71
2021/09/08 06:56:55;;;;;;;17.48;10.77;;;;;;;16.99;62.36;100838.66;8659800;33;20206;-72
2021/09/08 07:01:58;;;;;;;16.95;9.90;;;;;;;17.33;61.61;100835.22;8659480;33;20386;-71
2021/09/08 07:07:03;;;;;;;14.38;9.27;;;;;;;17.63;60.93;100828.50;8659428;33;20787;-72
2021/09/08 07:12:10;;;;;;;19.58;10.63;;;;;;;17.70;59.90;100820.56;8659833;33;20129;-72
2021/09/08 07:17:13;;;;;;;20.42;10.93;;;;;;;17.87;60.01;100822.34;8658549;33;20188;-71
2021/09/08 07:22:16;;;;;;;18.55;11.48;;;;;;;18.25;58.60;100812.03;8660434;33;20184;-72
2021/09/08 07:27:20;;;;;;;15.77;10.57;;;;;;;18.39;58.31;100804.28;8658992;33;20935;-72
2021/09/08 07:32:23;;;;;;;15.70;10.23;;;;;;;18.76;57.56;100803.84;8660224;33;20195;-72
2021/09/08 07:37:27;;;;;;;15.77;10.30;;;;;;;19.07;56.95;100804.06;8659602;33;20160;-72
2021/09/08 07:42:32;;;;;;;17.77;11.02;;;;;;;19.42;55.81;100802.88;8634809;33;20175;-72
2021/09/08 07:47:35;;;;;;;18.92;12.23;;;;;;;19.58;56.04;100807.47;8659017;33;20188;-71
2021/09/08 07:52:38;;;;;;;20.02;10.82;;;;;;;19.57;54.41;100808.47;8659820;33;20191;-72
2021/09/08 07:57:42;;;;;;;16.48;10.73;;;;;;;19.69;55.39;100808.94;8658284;33;20191;-72
2021/09/08 08:02:48;;;;;;;16.60;10.70;;;;;;;20.55;53.40;100805.41;8659391;33;20145;-72
2021/09/08 08:07:51;;;;;;;19.52;10.52;;;;;;;20.71;52.13;100806.34;8658978;33;20469;-72
2021/09/08 08:12:56;;;;;;;18.75;12.15;;;;;;;20.77;52.16;100806.44;8659519;33;20532;-72
2021/09/08 08:17:59;;;;;;;20.08;11.07;;;;;;;20.93;52.11;100791.84;8658050;33;20176;-72
2021/09/08 08:23:02;;;;;;;19.27;11.50;;;;;;;21.14;50.89;100796.63;8659909;33;21527;-72
2021/09/08 08:28:07;;;;;;;16.67;10.00;;;;;;;21.68;50.27;100787.41;8658271;33;20186;-71
2021/09/08 08:33:10;;;;;;;17.45;10.50;;;;;;;21.69;49.59;100786.38;8658807;33;20244;-71
2021/09/08 08:38:13;;;;;;;15.95;10.98;;;;;;;21.50;50.24;100786.91;8658662;33;21678;-71
2021/09/08 08:43:21;;;;;;;18.70;10.10;;;;;;;22.05;49.50;100783.75;8658668;33;20871;-72
2021/09/08 08:48:24;;;;;;;13.52;9.88;;;;;;;22.61;48.63;100780.44;8657093;33;20443;-72
2021/09/08 08:53:27;;;;;;;17.45;10.52;;;;;;;23.04;46.99;100771.38;8659069;33;20543;-71
2021/09/08 08:58:32;;;;;;;17.02;10.00;;;;;;;23.18;47.46;100771.34;8632893;33;20214;-70
2021/09/08 09:03:35;;;;;;;15.38;9.65;;;;;;;23.39;46.95;100764.97;8657776;33;20180;-72
2021/09/08 09:08:38;;;;;;;14.15;10.45;;;;;;;23.39;45.77;100766.84;8657836;33;20196;-71
2021/09/08 09:13:42;;;;;;;14.65;9.55;;;;;;;23.84;44.93;100760.00;8657898;33;20437;-72
2021/09/08 09:18:45;;;;;;;14.68;10.05;;;;;;;24.01;44.77;100754.19;8656317;33;20184;-72
2021/09/08 09:23:51;;;;;;;13.23;8.20;;;;;;;23.88;44.20;100758.53;8618193;33;21520;-71
2021/09/08 09:29:06;;;;;;;11.68;8.18;;;;;;;23.81;44.29;100741.22;8569586;34;20195;-71
2021/09/08 09:34:10;;;;;;;13.40;8.23;;;;;;;24.30;44.40;100736.56;8561927;34;20778;-71
2021/09/08 09:39:14;;;;;;;14.95;8.75;;;;;;;24.71;43.09;100725.47;8546407;34;20485;-72
2021/09/08 09:44:18;;;;;;;10.85;8.80;;;;;;;24.94;42.61;100718.72;8480837;34;20209;-72
2021/09/08 09:49:21;;;;;;;12.80;8.20;;;;;;;25.09;43.22;100730.38;8493251;34;20206;-70
2021/09/08 09:54:25;;;;;;;10.68;8.10;;;;;;;24.92;43.10;100729.91;8493800;34;20213;-72
2021/09/08 09:59:29;;;;;;;14.02;8.88;;;;;;;24.81;42.42;100719.56;8493719;34;20194;-70
2021/09/08 10:04:32;;;;;;;11.77;8.20;;;;;;;24.90;42.11;100717.44;8546742;34;20230;-72
2021/09/08 10:09:36;;;;;;;25.10;9.48;;;;;;;25.03;42.14;100711.97;8543613;34;20717;-72
2021/09/08 10:14:44;;;;;;;14.68;9.02;;;;;;;25.26;42.69;100692.31;8547170;34;20195;-73
2021/09/08 10:19:49;;;;;;;13.57;9.00;;;;;;;25.54;41.63;100677.44;8547446;34;20189;-72
2021/09/08 10:24:53;;;;;;;12.93;8.82;;;;;;;26.10;41.43;100679.53;8546944;34;20158;-71
2021/09/08 10:29:58;;;;;;;13.90;9.10;;;;;;;26.34;40.00;100677.97;8547093;34;20501;-72
2021/09/08 10:35:13;;;;;;;11.80;8.68;;;;;;;26.44;41.17;100666.44;8546842;34;21647;-71
2021/09/08 10:40:18;;;;;;;11.73;8.27;;;;;;;26.76;39.79;100669.16;8603665;34;20188;-72
2021/09/08 10:45:25;;;;;;;15.63;9.15;;;;;;;27.05;39.50;100656.66;8603615;34;20140;-71
2021/09/08 10:50:41;;;;;;;13.30;9.05;;;;;;;27.07;38.44;100663.63;8603864;34;20235;-73
2021/09/08 10:55:52;;;;;;;11.95;8.30;;;;;;;27.20;38.88;100656.28;8602651;34;20189;-71
2021/09/08 11:00:56;;;;;;;12.52;8.07;;;;;;;27.96;38.33;100646.69;8603099;34;20283;-71
2021/09/08 11:06:02;;;;;;;10.68;8.50;;;;;;;28.57;36.71;100636.47;8601968;34;20279;-71
2021/09/08 11:11:11;;;;;;;10.00;7.63;;;;;;;28.78;36.34;100629.53;8602207;34;20300;-71
2021/09/08 11:16:25;;;;;;;15.93;8.55;;;;;;;28.93;36.17;100635.41;8601822;34;20647;-71
2021/09/08 11:21:30;;;;;;;14.15;7.53;;;;;;;29.34;35.11;100625.31;8602311;34;20732;-71
2021/09/08 11:26:36;;;;;;;11.35;8.07;;;;;;;29.65;33.98;100610.25;8577154;34;20173;-72
2021/09/08 11:31:43;;;;;;;10.93;7.70;;;;;;;30.18;34.12;100608.22;8601353;34;20157;-71
2021/09/08 11:36:47;;;;;;;10.40;8.35;;;;;;;30.34;32.57;100607.41;8600983;34;20169;-71
2021/09/08 11:41:56;;;;;;;12.02;8.25;;;;;;;30.12;32.79;100615.56;8601687;34;20287;-71
2021/09/08 11:47:00;;;;;;;11.98;7.95;;;;;;;30.29;32.52;100612.84;8600779;34;20193;-71
2021/09/08 11:52:04;;;;;;;10.93;7.13;;;;;;;30.47;32.18;100609.84;8601718;34;20181;-71
2021/09/08 11:57:12;;;;;;;9.80;7.95;;;;;;;30.96;31.50;100605.63;8600606;34;20280;-72
2021/09/08 12:02:17;;;;;;;9.43;7.40;;;;;;;31.78;31.06;100599.25;8576540;34;20180;-72
2021/09/08 12:07:29;;;;;;;10.55;7.07;;;;;;;32.25;30.23;100598.63;8600348;34;20752;-72
2021/09/08 12:12:32;;;;;;;8.68;7.18;;;;;;;32.15;30.64;100592.97;8600608;34;20275;-72
2021/09/08 12:17:37;;;;;;;9.65;7.20;;;;;;;32.40;30.01;100581.28;8600424;34;20232;-73
2021/09/08 12:22:43;;;;;;;8.90;6.88;;;;;;;32.36;29.12;100577.31;8601210;34;20284;-71
2021/09/08 12:27:48;;;;;;;8.35;6.50;;;;;;;31.39;29.78;100584.59;8599807;34;20157;-71
2021/09/08 12:32:59;;;;;;;7.80;6.07;;;;;;;32.09;29.23;100575.41;8600409;34;20482;-72
2021/09/08 12:38:02;;;;;;;7.60;6.20;;;;;;;32.45;28.52;100559.06;8599640;34;20188;-72
2021/09/08 12:43:05;;;;;;;7.60;5.18;;;;;;;33.29;27.94;100549.03;8599755;34;20645;-72
2021/09/08 12:48:09;;;;;;;6.93;5.75;;;;;;;33.36;27.65;100524.56;8600203;34;21108;-72
2021/09/08 12:53:12;;;;;;;8.43;5.78;;;;;;;32.32;27.13;100535.34;8599198;34;20243;-72
2021/09/08 12:58:15;;;;;;;8.48;5.53;;;;;;;31.75;28.65;100538.69;8598983;34;20149;-72
2021/09/08 13:03:20;;;;;;;8.52;6.10;;;;;;;31.85;28.42;100526.84;8575592;34;20184;-72
2021/09/08 13:08:23;;;;;;;8.80;6.20;;;;;;;32.78;28.23;100513.44;8599529;34;20936;-72
2021/09/08 13:13:26;;;;;;;8.35;5.90;;;;;;;32.61;28.31;100507.16;8600661;34;20466;-72
2021/09/08 13:18:31;;;;;;;7.80;5.50;;;;;;;32.10;28.62;100506.78;8603985;34;20161;-72
2021/09/08 13:23:34;;;;;;;6.45;5.32;;;;;;;32.69;28.36;100497.53;8603846;34;20219;-72
2021/09/08 13:28:38;;;;;;;6.45;5.50;;;;;;;32.83;27.82;100485.66;8603055;34;20176;-72
2021/09/08 13:33:42;;;;;;;10.18;5.28;;;;;;;32.72;28.17;100489.50;8601446;34;20188;-72
2021/09/08 13:38:45;;;;;;;8.30;5.50;;;;;;;32.61;28.75;100476.59;8602598;34;20548;-72
2021/09/08 13:43:48;;;;;;;6.25;5.32;;;;;;;32.08;28.10;100475.66;8602838;34;20215;-72
2021/09/08 13:48:53;;;;;;;6.72;4.97;;;;;;;32.29;28.43;100474.75;8603525;34;20185;-72
2021/09/08 13:53:56;;;;;;;9.00;5.95;;;;;;;31.44;29.08;100473.66;8604018;34;20449;-72
2021/09/08 13:58:59;;;;;;;8.02;5.57;;;;;;;31.30;28.57;100460.19;8604610;34;20277;-72
2021/09/08 14:04:04;;;;;;;7.82;5.70;;;;;;;31.31;28.88;100453.53;8597583;34;20192;-71
2021/09/08 14:09:07;;;;;;;7.30;5.95;;;;;;;31.21;28.92;100445.13;8549443;34;20165;-72
2021/09/08 14:14:11;;;;;;;7.82;5.88;;;;;;;30.91;29.88;100442.81;8546059;34;20214;-72
2021/09/08 14:19:17;;;;;;;7.30;5.65;;;;;;;31.16;28.78;100430.28;8546069;34;20636;-72
2021/09/08 14:24:20;;;;;;;5.78;5.13;;;;;;;31.03;28.76;100424.06;8520893;34;20404;-72
2021/09/08 14:29:23;;;;;;;9.88;5.93;;;;;;;31.21;29.77;100417.38;8546897;34;20509;-71
2021/09/08 14:34:28;;;;;;;6.55;4.90;;;;;;;31.66;29.39;100405.06;8522288;34;20141;-72
2021/09/08 14:39:31;;;;;;;6.10;5.10;;;;;;;31.50;28.42;100400.44;8545689;34;20181;-72
2021/09/08 14:44:34;;;;;;;10.23;5.82;;;;;;;31.01;29.57;100395.75;8544989;34;20173;-72
2021/09/08 14:49:38;;;;;;;8.68;6.00;;;;;;;30.54;29.65;100390.72;8546757;34;21554;-72
2021/09/08 14:54:41;;;;;;;6.40;4.88;;;;;;;30.43;29.99;100400.00;8521346;34;20256;-72
2021/09/08 14:59:54;;;;;;;6.47;4.55;;;;;;;31.39;29.01;100384.81;8545906;34;20280;-72
2021/09/08 15:04:59;;;;;;;7.20;4.95;;;;;;;31.48;29.20;100386.00;8545251;34;20143;-72
2021/09/08 15:10:03;;;;;;;6.68;5.50;;;;;;;30.94;29.46;100377.63;8545549;34;20189;-72
2021/09/08 15:15:09;;;;;;;7.68;5.32;;;;;;;30.44;30.00;100373.97;8544797;34;20181;-72
2021/09/08 15:20:16;;;;;;;7.70;5.40;;;;;;;29.81;30.90;100365.00;8544693;34;20457;-72
2021/09/08 15:25:19;;;;;;;6.40;5.10;;;;;;;29.96;31.10;100356.94;8543777;34;20237;-72
2021/09/08 15:30:24;;;;;;;5.82;4.47;;;;;;;30.29;30.61;100355.22;8544132;34;20235;-72
2021/09/08 15:35:28;;;;;;;6.50;5.00;;;;;;;31.61;29.27;100352.25;8543067;34;20401;-72
2021/09/08 15:40:32;;;;;;;7.55;5.57;;;;;;;32.49;28.21;100348.09;8520217;34;20173;-72
2021/09/08 15:45:35;;;;;;;6.50;5.05;;;;;;;32.33;29.15;100344.41;8543097;34;21590;-72
2021/09/08 15:50:40;;;;;;;6.95;5.40;;;;;;;32.12;29.05;100333.19;8543504;34;20944;-72
2021/09/08 15:55:44;;;;;;;6.53;5.40;;;;;;;31.13;29.16;100329.88;8543524;34;20353;-72
2021/09/08 16:00:47;;;;;;;7.68;5.30;;;;;;;30.58;30.88;100327.28;8543635;34;20284;-73
2021/09/08 16:05:52;;;;;;;7.63;5.43;;;;;;;29.33;31.41;100331.25;8543064;34;20157;-72
2021/09/08 16:10:56;;;;;;;6.50;5.05;;;;;;;28.69;33.39;100314.88;8543939;34;21747;-72
2021/09/08 16:16:00;;;;;;;7.75;5.45;;;;;;;28.94;33.38;100306.22;8540595;34;20453;-72
2021/09/08 16:21:06;;;;;;;6.53;5.13;;;;;;;28.73;33.57;100304.13;8543835;34;20526;-73
2021/09/08 16:26:09;;;;;;;8.88;5.50;;;;;;;28.69;33.27;100301.03;8542893;34;21692;-72
2021/09/08 16:31:12;;;;;;;7.63;4.95;;;;;;;28.62;33.64;100294.81;8543550;34;20380;-72
2021/09/08 16:36:17;;;;;;;6.63;4.60;;;;;;;28.60;33.67;100293.38;8542920;34;20651;-72
2021/09/08 16:41:20;;;;;;;5.97;5.03;;;;;;;28.17;33.66;100287.25;8520238;34;20578;-72
2021/09/08 16:46:27;;;;;;;6.95;4.85;;;;;;;27.90;34.26;100281.38;8542798;34;20142;-72
2021/09/08 16:51:32;;;;;;;5.65;4.43;;;;;;;27.57;34.63;100280.06;8548466;34;20336;-72
2021/09/08 16:56:35;;;;;;;5.32;4.00;;;;;;;27.10;34.51;100274.47;8523536;34;20430;-73
2021/09/08 17:01:38;;;;;;;7.70;4.47;;;;;;;26.74;34.96;100275.41;8547789;34;21065;-72
2021/09/08 17:06:43;;;;;;;5.13;3.67;;;;;;;26.42;35.79;100270.13;8524524;34;20217;-72
2021/09/08 17:11:46;;;;;;;5.85;4.25;;;;;;;26.31;36.54;100265.41;8548077;34;20262;-72
2021/09/08 17:16:49;;;;;;;6.68;4.57;;;;;;;25.89;37.69;100265.25;8547526;34;20453;-73
2021/09/08 17:21:53;;;;;;;6.00;4.70;;;;;;;25.55;38.40;100267.44;8548287;34;20524;-73
2021/09/08 17:26:58;;;;;;;4.75;4.10;;;;;;;25.22;39.38;100273.25;8547033;34;20138;-73
2021/09/08 17:32:04;;;;;;;6.38;4.50;;;;;;;24.83;40.06;100269.69;8547565;34;21070;-73
2021/09/08 17:37:09;;;;;;;6.13;4.30;;;;;;;24.36;41.38;100265.50;8547163;34;20718;-73
2021/09/08 17:42:37;;;;;;;8.32;4.90;;;;;;;23.98;42.07;100258.88;8511864;34;20695;-73
2021/09/08 17:47:40;;;;;;;6.55;4.78;;;;;;;23.65;42.77;100256.19;8546457;34;20810;-72
2021/09/08 17:52:46;;;;;;;7.93;5.35;;;;;;;23.42;43.06;100249.28;8512375;34;20719;-72
2021/09/08 17:57:50;;;;;;;5.75;4.53;;;;;;;23.21;43.50;100247.59;8545974;34;21919;-72
2021/09/08 18:02:54;;;;;;;6.30;4.93;;;;;;;22.96;44.13;100243.75;8546236;34;20205;-72
2021/09/08 18:07:59;;;;;;;7.22;5.47;;;;;;;22.74;44.57;100245.84;8547171;34;20232;-72
2021/09/08 18:13:03;;;;;;;6.50;5.05;;;;;;;22.50;45.52;100249.97;8548196;34;20196;-72
2021/09/08 18:18:07;;;;;;;6.65;4.75;;;;;;;22.35;45.20;100247.34;8546249;34;20309;-72
2021/09/08 18:23:13;;;;;;;9.63;5.25;;;;;;;22.24;45.45;100246.09;8545331;34;20758;-72
2021/09/08 18:28:16;;;;;;;7.50;4.32;;;;;;;22.09;45.78;100251.69;8545249;34;20658;-72
2021/09/08 18:33:22;;;;;;;8.13;4.97;;;;;;;21.95;46.43;100249.09;8522719;34;20674;-72
2021/09/08 18:38:27;;;;;;;7.72;4.97;;;;;;;21.81;46.44;100248.19;8546200;34;20452;-72
2021/09/08 18:43:30;;;;;;;6.05;4.43;;;;;;;21.61;46.95;100245.28;8546854;34;20186;-71
2021/09/08 18:48:33;;;;;;;11.18;5.35;;;;;;;21.50;47.14;100249.41;8546643;34;20699;-72
2021/09/08 18:53:37;;;;;;;6.97;5.32;;;;;;;21.37;47.33;100252.91;8546947;34;20221;-71
2021/09/08 18:58:41;;;;;;;10.35;5.40;;;;;;;21.24;47.71;100247.34;8545353;34;20157;-71
2021/09/08 19:03:44;;;;;;;6.10;4.85;;;;;;;21.07;47.98;100249.50;8544727;34;20185;-72
2021/09/08 19:08:50;;;;;;;5.85;4.45;;;;;;;21.07;48.01;100256.84;8545451;34;20197;-72
2021/09/08 19:13:53;;;;;;;7.93;5.03;;;;;;;20.97;48.49;100260.72;8547017;34;20683;-72
2021/09/08 19:18:59;;;;;;;7.35;5.63;;;;;;;20.84;48.74;100251.53;8546271;34;20534;-71
2021/09/08 19:24:05;;;;;;;9.30;6.03;;;;;;;20.67;49.20;100254.53;8545151;34;20441;-72
2021/09/08 19:29:08;;;;;;;7.50;5.57;;;;;;;20.59;49.39;100257.38;8544908;34;20978;-72
2021/09/08 19:34:11;;;;;;;10.40;5.90;;;;;;;20.52;49.41;100251.03;8543984;34;20170;-72
2021/09/08 19:39:17;;;;;;;9.23;6.25;;;;;;;20.46;49.40;100254.50;8520795;34;20745;-72
2021/09/08 19:44:20;;;;;;;9.70;7.25;;;;;;;20.37;49.50;100251.03;8520317;34;20177;-72
2021/09/08 19:49:23;;;;;;;7.82;5.70;;;;;;;20.32;49.88;100250.78;8552519;34;20157;-72
2021/09/08 19:54:29;;;;;;;7.43;5.15;;;;;;;20.22;50.18;100252.94;8598656;34;20161;-72
2021/09/08 19:59:32;;;;;;;6.57;4.88;;;;;;;20.06;50.68;100254.84;8598570;34;20193;-72
2021/09/08 20:04:35;;;;;;;6.43;4.78;;;;;;;19.98;50.78;100252.22;8595676;34;21107;-72
2021/09/08 20:09:45;;;;;;;6.90;5.40;;;;;;;19.93;51.04;100253.81;8597294;34;20786;-72
2021/09/08 20:14:48;;;;;;;8.52;6.03;;;;;;;19.84;51.38;100253.91;8599977;34;20336;-72
2021/09/08 20:19:51;;;;;;;11.38;6.85;;;;;;;19.79;51.41;100256.34;8600682;34;20189;-72
2021/09/08 20:24:55;;;;;;;7.30;5.47;;;;;;;19.68;51.71;100254.09;8599917;34;20243;-72
2021/09/08 20:29:58;;;;;;;8.57;5.88;;;;;;;19.62;52.07;100246.69;8600352;34;20221;-72
2021/09/08 20:35:02;;;;;;;7.35;5.82;;;;;;;19.52;52.62;100238.72;8600114;34;20193;-72
2021/09/08 20:40:08;;;;;;;15.20;9.10;;;;;;;19.50;52.84;100246.25;8599730;34;21000;-71
2021/09/08 20:45:14;;;;;;;11.75;7.05;;;;;;;19.37;52.74;100241.44;8575466;34;20258;-71
2021/09/08 20:50:18;;;;;;;8.77;5.50;;;;;;;19.24;53.48;100244.78;8600339;34;20259;-71
2021/09/08 20:55:22;;;;;;;7.68;5.72;;;;;;;19.23;53.49;100245.00;8599268;34;20203;-72
2021/09/08 21:00:25;;;;;;;8.63;6.18;;;;;;;19.15;53.75;100235.03;8600134;34;21762;-71
2021/09/08 21:05:28;;;;;;;7.78;6.10;;;;;;;19.04;54.03;100227.28;8599843;34;20149;-71
2021/09/08 21:10:33;;;;;;;8.43;6.22;;;;;;;18.90;54.56;100230.84;8599914;34;21668;-71
2021/09/08 21:15:36;;;;;;;8.85;5.47;;;;;;;18.75;55.14;100226.13;8598538;34;20216;-71
2021/09/08 21:20:39;;;;;;;10.23;6.63;;;;;;;18.70;55.41;100220.38;8599287;34;20158;-71
2021/09/08 21:25:43;;;;;;;11.15;6.32;;;;;;;18.65;55.84;100228.25;8599015;34;20189;-71
2021/09/08 21:30:46;;;;;;;10.73;6.90;;;;;;;18.54;56.09;100224.09;8599268;34;20200;-71
2021/09/08 21:35:49;;;;;;;10.25;6.80;;;;;;;18.55;56.35;100222.19;8601128;34;20145;-71
2021/09/08 21:40:54;;;;;;;10.80;6.38;;;;;;;18.43;56.61;100219.06;8604202;34;20219;-71
2021/09/08 21:45:56;;;;;;;12.27;6.45;;;;;;;18.34;57.02;100220.13;8603203;34;20185;-71
2021/09/08 21:51:00;;;;;;;12.27;7.07;;;;;;;18.30;57.15;100224.22;8604442;34;20957;-71
2021/09/08 21:56:04;;;;;;;9.90;6.80;;;;;;;18.40;57.16;100213.94;8603088;34;20239;-72
2021/09/08 22:01:07;;;;;;;8.32;6.38;;;;;;;18.50;56.95;100211.00;8603278;34;20146;-72
2021/09/08 22:06:11;;;;;;;11.10;7.10;;;;;;;18.51;56.95;100209.97;8602462;34;20185;-72
2021/09/08 22:11:15;;;;;;;9.68;7.25;;;;;;;18.50;57.07;100203.69;8603262;34;20214;-73
2021/09/08 22:16:18;;;;;;;9.27;7.38;;;;;;;18.49;57.04;100206.63;8603928;34;21072;-73
2021/09/08 22:21:21;;;;;;;10.93;7.55;;;;;;;18.40;57.48;100197.63;8604699;34;20244;-72
2021/09/08 22:26:26;;;;;;;14.57;8.20;;;;;;;18.23;57.96;100194.19;8602992;34;20181;-72
2021/09/08 22:31:29;;;;;;;9.82;6.75;;;;;;;18.00;59.33;100206.91;8602746;34;20332;-72
2021/09/08 22:36:32;;;;;;;10.02;6.20;;;;;;;17.73;60.00;100208.16;8601980;34;20303;-73
2021/09/08 22:41:37;;;;;;;10.20;6.80;;;;;;;17.43;60.80;100199.75;8602091;34;20203;-73
2021/09/08 22:46:40;;;;;;;8.32;6.68;;;;;;;17.21;61.58;100206.75;8601774;34;20185;-73
2021/09/08 22:51:43;;;;;;;10.00;7.90;;;;;;;16.99;62.47;100205.56;8602585;34;20233;-72
2021/09/08 22:56:47;;;;;;;12.20;7.85;;;;;;;16.98;62.50;100209.31;8601953;34;20291;-73
2021/09/08 23:01:52;;;;;;;12.45;8.32;;;;;;;17.14;62.13;100200.31;8601535;34;20940;-73
2021/09/08 23:06:55;;;;;;;12.02;8.15;;;;;;;17.33;61.52;100196.38;8601625;34;20275;-72
2021/09/08 23:12:00;;;;;;;13.10;8.52;;;;;;;17.39;61.58;100201.16;8600465;34;21087;-72
2021/09/08 23:17:05;;;;;;;10.77;7.78;;;;;;;17.34;61.22;100198.09;8601391;34;20362;-73
2021/09/08 23:22:08;;;;;;;13.60;8.43;;;;;;;17.30;61.35;100196.72;8601658;34;20191;-72